Have a Safe July 4th! 

Flight Track Log - Related Links

Times and Time Zones

All times are in EDT time to prevent confusion due to time zone crossing. See the SKW4730 flight status page for this flight to view local times or setup timezone preferences in your user account.

Time Position Orientation Groundspeed Altitude Reporting Facility
EDT Latitude Longitude Course Direction KTS MPH feet Rate Location/Type
Mon 04:44:03 PM 33.8431 -118.1847 18° North 159 183 2,000  Level Los Angeles Center
Mon 04:45:05 PM 33.7986 -118.2203 214° Southwest 223 257 4,200 2,371 Climbing Los Angeles Center
Mon 04:46:00 PM 33.6132 -118.1694 107° East  Level FlightAware Approximate
Mon 04:46:07 PM 33.7356 -118.2297 187° South 225 259 6,900  Level Los Angeles Center
Mon 04:47:00 PM 33.5850 -118.0565 107° East  Level FlightAware Approximate
Mon 04:47:09 PM 33.6617 -118.2419 188° South 256 295 8,600  Level Los Angeles Center
Mon 04:48:00 PM 33.6719 -118.0213 18° North  Level FlightAware Approximate
Mon 04:48:11 PM 33.5911 -118.2228 167° South 282 325 11,000  Level Los Angeles Center
Mon 04:49:00 PM 33.7650 -117.9840 18° North  Level FlightAware Approximate
Mon 04:49:13 PM 33.6250 -118.1061 71° East 338 389 13,300  Level Los Angeles Center
Mon 04:50:16 PM 33.7161 -118.0475 28° Northeast 375 432 15,500 2,160 Climbing Los Angeles Center
Mon 04:51:18 PM 33.8117 -117.9922 26° Northeast 384 442 17,800 2,081 Climbing Los Angeles Center
Mon 04:52:20 PM 33.9083 -117.9353 26° Northeast 388 447 19,800 1,839 Climbing Los Angeles Center
Mon 04:53:22 PM 34.0175 -117.8422 35° Northeast 402 463 21,600 1,258 Climbing Los Angeles Center
Mon 04:54:24 PM 34.1119 -117.7522 38° Northeast 421 484 22,400 1,210 Climbing Los Angeles Center
Mon 04:55:26 PM 34.1928 -117.6381 49° Northeast 444 511 24,100 1,210 Climbing Los Angeles Center
Mon 04:56:28 PM 34.2756 -117.5256 48° Northeast 448 516 24,900 919 Climbing Los Angeles Center
Mon 04:57:30 PM 34.3614 -117.4075 49° Northeast 464 534 26,000 1,210 Climbing Los Angeles Center
Mon 04:58:32 PM 34.4528 -117.2814 49° Northeast 476 548 27,400 1,248 Climbing Los Angeles Center
Mon 04:59:35 PM 34.5394 -117.1614 49° Northeast 477 549 28,600 1,632 Climbing Los Angeles Center
Mon 05:00:37 PM 34.6428 -117.0186 49° Northeast 471 542 30,800 1,742 Climbing Los Angeles Center
Mon 05:01:39 PM 34.7264 -116.9031 49° Northeast 462 532 32,200 1,065 Climbing Los Angeles Center
Mon 05:02:41 PM 34.8089 -116.7875 49° Northeast 456 525 33,000 387 Climbing Los Angeles Center
Mon 05:03:43 PM 34.8947 -116.6667 49° Northeast 473 544 33,000  Level Los Angeles Center
Mon 05:04:45 PM 34.9878 -116.5406 48° Northeast 495 570 33,000  Level Los Angeles Center
Mon 05:05:47 PM 35.1053 -116.3958 45° Northeast 501 577 33,000  Level Los Angeles Center
Mon 05:06:49 PM 35.1986 -116.2789 46° Northeast 489 563 33,000  Level Los Angeles Center
Mon 05:07:51 PM 35.2903 -116.1633 46° Northeast 477 549 33,000  Level Los Angeles Center
Mon 05:08:54 PM 35.3822 -116.0458 46° Northeast 478 550 33,000  Level Los Angeles Center
Mon 05:09:56 PM 35.4767 -115.9306 45° Northeast 480 552 33,000  Level Los Angeles Center
Mon 05:10:58 PM 35.5850 -115.7925 46° Northeast 478 550 33,000  Level Los Angeles Center
Mon 05:12:00 PM 35.6781 -115.6728 46° Northeast 481 554 33,000  Level Los Angeles Center
Mon 05:13:02 PM 35.7714 -115.5547 46° Northeast 483 556 33,000  Level Los Angeles Center
Mon 05:14:04 PM 35.8647 -115.4344 46° Northeast 486 559 33,000 242 Level Los Angeles Center
Mon 05:15:06 PM 35.9767 -115.2914 46° Northeast 486 559 33,500 484 Climbing Los Angeles Center
Mon 05:16:08 PM 36.0667 -115.1747 46° Northeast 475 547 34,000 242 Climbing Los Angeles Center
Mon 05:17:10 PM 36.1628 -115.0514 46° Northeast 496 571 34,000  Level Los Angeles Center
Mon 05:18:12 PM 36.2619 -114.9278 45° Northeast 507 583 34,000  Level Los Angeles Center
Mon 05:19:15 PM 36.3589 -114.8039 46° Northeast 504 580 34,000  Level Los Angeles Center
Mon 05:20:17 PM 36.4742 -114.6556 46° Northeast 500 575 34,000  Level Los Angeles Center
Mon 05:21:19 PM 36.5753 -114.5483 40° Northeast 486 559 34,000  Level Los Angeles Center
Mon 05:22:21 PM 36.6858 -114.4558 34° Northeast 480 552 34,000 48 Level Los Angeles Center
Mon 05:23:23 PM 36.7961 -114.3633 34° Northeast 478 550 34,100 435 Climbing Los Angeles Center
Mon 05:24:25 PM 36.9086 -114.2692 34° Northeast 483 556 34,900 435 Climbing Los Angeles Center
Mon 05:25:27 PM 37.0225 -114.1719 34° Northeast 490 564 35,000 48 Climbing Los Angeles Center
Mon 05:26:29 PM 37.1639 -114.0528 34° Northeast 505 581 35,000  Level Los Angeles Center
Mon 05:27:31 PM 37.2822 -113.9519 34° Northeast 512 589 35,000  Level Los Angeles Center
Mon 05:28:33 PM 37.3961 -113.8547 34° Northeast 500 575 35,000  Level Los Angeles Center
Mon 05:29:36 PM 37.5103 -113.7597 33° Northeast 492 566 35,000  Level Los Angeles Center
Mon 05:30:38 PM 37.6222 -113.6608 35° Northeast 490 564 35,000  Level Los Angeles Center
Mon 05:31:40 PM 37.7353 -113.5631 34° Northeast 490 564 35,000  Level Los Angeles Center
Mon 05:32:42 PM 37.8719 -113.4453 34° Northeast 492 566 35,000 -48 Level Los Angeles Center
Mon 05:33:44 PM 37.9861 -113.3444 35° Northeast 495 570 34,900 -290 Descending Los Angeles Center
Mon 05:34:46 PM 38.1011 -113.2433 35° Northeast 500 575 34,400 -484 Descending Los Angeles Center
Mon 05:35:48 PM 38.2144 -113.1417 35° Northeast 497 572 33,900 -500 Descending Los Angeles Center
Mon 05:36:58 PM 38.3489 -113.0250 34° Northeast 490 564 33,300 -409 Descending Salt Lake Center
Mon 05:38:00 PM 38.4753 -112.9506 25° Northeast 497 572 33,000 -145 Descending Salt Lake Center
Mon 05:39:02 PM 38.6053 -112.8828 22° Northeast 502 578 33,000 -290 Level Salt Lake Center
Mon 05:40:04 PM 38.7317 -112.8150 23° Northeast 496 571 32,400 -677 Descending Salt Lake Center
Mon 05:41:06 PM 38.8539 -112.7492 23° Northeast 480 552 31,600 -677 Descending Salt Lake Center
Mon 05:42:08 PM 38.9769 -112.6828 23° Northeast 479 551 31,000 -387 Descending Salt Lake Center
Mon 05:43:10 PM 39.1286 -112.6011 23° Northeast 490 564 30,800 -1,113 Descending Salt Lake Center
Mon 05:44:12 PM 39.2450 -112.5361 23° Northeast 502 578 28,700 -2,226 Descending Salt Lake Center
Mon 05:45:14 PM 39.3725 -112.4661 23° Northeast 501 577 26,200 -2,661 Descending Salt Lake Center
Mon 05:46:16 PM 39.5108 -112.3872 24° Northeast 452 520 23,200 -2,516 Descending Salt Lake Center
Mon 05:47:18 PM 39.6183 -112.3256 24° Northeast 424 488 21,000 -2,129 Descending Salt Lake Center
Mon 05:48:20 PM 39.7178 -112.2642 25° Northeast 401 461 18,800 -2,129 Descending Salt Lake Center
Mon 05:49:22 PM 39.8022 -112.1858 35° Northeast 373 429 16,600 -1,918 Descending Salt Lake Center
Mon 05:49:57 PM 39.8633 -112.1531 22° Northeast 353 406 15,700 -1,067 Descending Salt Lake Center
Mon 05:50:52 PM 39.9467 -112.1281 13° North 335 386 15,000 -607 Descending Salt Lake Center
Mon 05:51:26 PM 39.9967 -112.1019 22° Northeast 326 375 14,800 -938 Descending Salt Lake Center
Mon 05:52:28 PM 40.0772 -112.0550 24° Northeast 312 359 13,500 -1,161 Descending Salt Lake Center
Mon 05:53:30 PM 40.1558 -112.0081 25° Northeast 313 360 12,400 -1,065 Descending Salt Lake Center
Mon 05:54:32 PM 40.2314 -111.9619 25° Northeast 299 344 11,300 -677 Descending Salt Lake Center
Mon 05:55:34 PM 40.3119 -111.9364 14° North 299 344 11,000 -145 Descending Salt Lake Center
Mon 05:56:36 PM 40.3944 -111.9281 North 295 339 11,000 -484 Level Salt Lake Center
Mon 05:57:38 PM 40.4711 -111.9372 355° North 272 313 10,000 -1,306 Descending Salt Lake Center
Mon 05:58:40 PM 40.5611 -111.9497 354° North 272 313 8,300 -1,645 Descending Salt Lake Center

Login

Don't have an account? Register now (free) for customized features, flight alerts, and more!